Time;durP1;ratioP1;P1;durP2;ratioP2;P2;SDS_P1;SDS_P2;PMS_P1;PMS_P2;Temp;Humidity;BMP_temperature;BMP_pressure;BME280_temperature;BME280_humidity;BME280_pressure;Samples;Min_cycle;Max_cycle;Signal;HPM_P1;HPM_P2
2021/10/19 00:01:10;;;;;;;22.90;11.98;;;;;;;7.92;98.12;96004.72;5107021;27;20051;-74
2021/10/19 00:03:38;;;;;;;22.40;13.18;;;;;;;7.95;97.87;96009.56;5106552;27;20122;-75
2021/10/19 00:06:04;;;;;;;23.48;13.02;;;;;;;7.93;97.64;96011.53;5104672;28;20046;-75
2021/10/19 00:08:31;;;;;;;24.08;13.57;;;;;;;7.84;98.18;96008.25;5105472;27;20047;-75
2021/10/19 00:10:58;;;;;;;29.08;16.25;;;;;;;7.85;98.49;96015.84;5106894;27;20051;-75
2021/10/19 00:13:25;;;;;;;29.08;14.20;;;;;;;7.82;98.43;96015.41;5103823;28;20425;-75
2021/10/19 00:15:52;;;;;;;26.58;14.77;;;;;;;7.80;98.52;96014.81;5109043;27;20114;-75
2021/10/19 00:18:19;;;;;;;25.27;14.18;;;;;;;7.81;98.53;96025.00;5104646;28;20421;-75
2021/10/19 00:20:46;;;;;;;24.30;12.73;;;;;;;7.68;98.46;96006.69;5090611;28;20470;-75
2021/10/19 00:23:13;;;;;;;24.02;13.15;;;;;;;7.70;98.61;96022.88;5108811;27;20048;-74
2021/10/19 00:25:41;;;;;;;26.27;13.82;;;;;;;7.65;98.73;96022.59;5110084;27;20032;-74
2021/10/19 00:28:08;;;;;;;27.73;14.55;;;;;;;7.46;99.71;96017.03;5106017;28;20054;-74
2021/10/19 00:30:34;;;;;;;22.27;12.95;;;;;;;7.41;99.71;96014.16;5106903;27;20102;-74
2021/10/19 00:33:01;;;;;;;27.55;13.65;;;;;;;7.35;100.00;96025.28;5107719;27;20032;-75
2021/10/19 00:35:28;;;;;;;27.08;14.57;;;;;;;7.26;100.00;96019.38;5105778;28;20047;-74
2021/10/19 00:37:55;;;;;;;24.80;14.40;;;;;;;7.29;100.00;96031.16;5105478;27;20043;-74
2021/10/19 00:40:22;;;;;;;25.63;13.60;;;;;;;7.11;100.00;96007.41;5103990;28;20039;-74
2021/10/19 00:42:48;;;;;;;25.20;13.57;;;;;;;7.13;100.00;96021.00;5105618;27;20093;-74
2021/10/19 00:45:15;;;;;;;22.83;13.07;;;;;;;7.05;100.00;96009.75;5105640;27;20043;-74
2021/10/19 00:47:51;;;;;;;26.58;13.50;;;;;;;7.13;100.00;96026.19;5106698;27;20119;-75
2021/10/19 00:50:19;;;;;;;30.15;14.90;;;;;;;7.04;100.00;96028.88;5108829;27;21686;-74
2021/10/19 00:52:47;;;;;;;30.98;14.80;;;;;;;6.87;100.00;95996.34;5104791;27;20086;-75
2021/10/19 00:55:15;;;;;;;29.02;15.20;;;;;;;6.85;100.00;96019.03;5105065;28;20112;-74
2021/10/19 00:57:42;;;;;;;31.70;16.42;;;;;;;6.89;100.00;96025.47;5107042;27;20043;-75
2021/10/19 01:00:10;;;;;;;28.02;17.23;;;;;;;6.86;100.00;96031.00;5105292;27;20448;-75
2021/10/19 01:02:38;;;;;;;35.22;22.33;;;;;;;6.83;100.00;96028.78;5104283;27;20048;-75
2021/10/19 01:05:05;;;;;;;28.30;21.13;;;;;;;6.64;100.00;96020.53;5104883;27;20130;-75
2021/10/19 01:07:32;;;;;;;33.25;21.73;;;;;;;6.64;100.00;96033.47;5105726;27;20394;-75
2021/10/19 01:10:02;;;;;;;33.90;17.77;;;;;;;6.70;100.00;96027.59;5105847;27;20048;-75
2021/10/19 01:12:29;;;;;;;30.65;17.95;;;;;;;6.64;100.00;96025.69;5105817;28;20044;-75
2021/10/19 01:14:55;;;;;;;31.02;17.00;;;;;;;6.52;100.00;96019.38;5100814;28;20058;-75
2021/10/19 01:17:22;;;;;;;29.17;15.32;;;;;;;6.51;100.00;96022.94;5105145;28;20577;-75
2021/10/19 01:19:50;;;;;;;30.83;16.83;;;;;;;6.46;100.00;96020.06;5103716;28;20471;-75
2021/10/19 01:22:17;;;;;;;32.70;19.13;;;;;;;6.46;100.00;96009.72;5104055;28;20050;-75
2021/10/19 01:24:44;;;;;;;33.42;21.98;;;;;;;6.53;100.00;96015.78;5102932;27;20096;-74
2021/10/19 01:27:12;;;;;;;39.92;22.23;;;;;;;6.52;100.00;96019.38;5104833;27;20073;-74
2021/10/19 01:29:39;;;;;;;30.23;20.77;;;;;;;6.46;100.00;96027.81;5107898;27;20412;-75
2021/10/19 01:32:06;;;;;;;34.58;21.10;;;;;;;6.35;100.00;96023.88;5108638;27;20565;-74
2021/10/19 01:34:34;;;;;;;31.02;18.60;;;;;;;6.35;100.00;96036.00;5105380;28;20039;-75
2021/10/19 01:37:05;;;;;;;32.47;17.67;;;;;;;6.40;100.00;96037.09;5106463;27;20428;-75
2021/10/19 01:39:32;;;;;;;33.15;18.77;;;;;;;6.42;100.00;96034.34;5104694;27;20050;-74
2021/10/19 01:41:58;;;;;;;27.90;17.88;;;;;;;6.35;100.00;96043.78;5103289;28;20043;-74
2021/10/19 01:44:26;;;;;;;30.27;18.77;;;;;;;6.26;100.00;96040.44;5105276;28;20043;-75
2021/10/19 01:46:52;;;;;;;31.27;16.67;;;;;;;6.30;100.00;96042.53;5088884;27;20405;-74
2021/10/19 01:49:19;;;;;;;34.45;16.88;;;;;;;6.35;100.00;96043.78;5106930;27;20036;-75
2021/10/19 01:51:46;;;;;;;33.90;19.02;;;;;;;6.30;100.00;96042.53;5106315;27;20485;-75
2021/10/19 01:54:13;;;;;;;37.38;20.63;;;;;;;6.20;100.00;96034.19;5104562;27;20455;-74
2021/10/19 01:56:39;;;;;;;30.33;19.35;;;;;;;6.24;100.00;96043.19;5101866;28;20047;-75
2021/10/19 01:59:06;;;;;;;34.17;19.45;;;;;;;6.27;100.00;96048.03;5107260;27;20100;-75
2021/10/19 02:01:38;;;;;;;32.65;19.52;;;;;;;6.28;100.00;96054.84;5102821;27;20146;-75
2021/10/19 02:04:05;;;;;;;28.40;17.73;;;;;;;6.28;100.00;96054.00;5104946;27;20471;-75
2021/10/19 02:06:31;;;;;;;29.73;17.10;;;;;;;6.22;100.00;96055.50;5102903;28;20114;-75
2021/10/19 02:08:58;;;;;;;30.40;18.67;;;;;;;6.17;100.00;96055.22;5104770;27;20092;-75
2021/10/19 02:11:25;;;;;;;30.13;21.23;;;;;;;6.19;100.00;96048.09;5101648;28;20091;-75
2021/10/19 02:13:52;;;;;;;28.65;19.02;;;;;;;6.13;100.00;96051.38;5091409;28;20098;-75
2021/10/19 02:16:18;;;;;;;34.22;22.05;;;;;;;6.13;100.00;96051.38;5105917;27;20458;-75
2021/10/19 02:18:45;;;;;;;31.80;20.33;;;;;;;6.15;100.00;96054.59;5107789;27;20078;-75
2021/10/19 02:21:12;;;;;;;28.77;21.25;;;;;;;6.08;100.00;96051.09;5104406;28;20104;-75
2021/10/19 02:23:39;;;;;;;31.60;20.45;;;;;;;5.97;100.00;96025.63;5102758;28;20463;-75
2021/10/19 02:26:05;;;;;;;29.23;16.73;;;;;;;6.06;100.00;96040.91;5100862;28;20051;-75
2021/10/19 02:28:32;;;;;;;40.50;21.48;;;;;;;6.04;100.00;96047.25;5101093;27;20126;-73
2021/10/19 02:30:59;;;;;;;55.63;24.20;;;;;;;6.00;100.00;96040.81;5105642;27;20039;-75
2021/10/19 02:33:26;;;;;;;45.15;21.65;;;;;;;6.11;100.00;96053.34;5107476;27;20039;-75
2021/10/19 02:35:53;;;;;;;35.45;20.08;;;;;;;6.08;100.00;96051.88;5102560;28;20059;-74
2021/10/19 02:38:20;;;;;;;38.13;20.35;;;;;;;6.02;100.00;96059.53;5102956;28;20047;-74
2021/10/19 02:40:46;;;;;;;29.65;19.38;;;;;;;5.81;100.00;96055.75;5103011;28;20130;-74
2021/10/19 02:43:15;;;;;;;41.25;20.27;;;;;;;5.89;100.00;96058.28;5102986;28;20036;-74
2021/10/19 02:45:41;;;;;;;36.88;20.25;;;;;;;5.88;100.00;96064.44;5103597;28;20036;-74
2021/10/19 02:48:08;;;;;;;39.58;23.58;;;;;;;5.78;100.00;96050.09;5102876;27;20043;-75
2021/10/19 02:50:35;;;;;;;40.38;22.88;;;;;;;5.79;100.00;96064.66;5103115;27;20092;-74
2021/10/19 02:53:02;;;;;;;34.17;21.77;;;;;;;5.74;100.00;96067.75;5102551;28;20039;-75
2021/10/19 02:55:28;;;;;;;33.65;19.83;;;;;;;5.62;100.00;96067.34;5103337;27;20036;-74
2021/10/19 02:57:55;;;;;;;34.58;19.65;;;;;;;5.59;100.00;96077.22;5101038;28;20092;-74
2021/10/19 03:00:22;;;;;;;30.48;19.13;;;;;;;5.50;100.00;96072.06;5103852;28;20073;-75
2021/10/19 03:02:49;;;;;;;37.13;26.13;;;;;;;5.43;100.00;96060.78;5104528;28;20035;-74
2021/10/19 03:05:16;;;;;;;36.20;17.60;;;;;;;5.39;100.00;96072.44;5104718;27;20044;-74
2021/10/19 03:07:43;;;;;;;38.75;16.25;;;;;;;5.36;100.00;96070.19;5109173;27;20494;-75
2021/10/19 03:10:09;;;;;;;29.05;15.25;;;;;;;5.47;100.00;96082.72;5104051;28;20463;-75
2021/10/19 03:12:37;;;;;;;26.48;16.23;;;;;;;5.36;100.00;96065.00;5099784;28;20044;-74
2021/10/19 03:15:04;;;;;;;30.52;18.10;;;;;;;5.41;100.00;96072.28;5085441;28;20516;-75
2021/10/19 03:17:31;;;;;;;28.75;16.23;;;;;;;5.44;100.00;96072.75;5101750;28;20040;-74
2021/10/19 03:19:58;;;;;;;26.25;15.75;;;;;;;5.39;100.00;96077.59;5103369;28;20039;-74
2021/10/19 03:22:25;;;;;;;29.15;16.38;;;;;;;5.42;100.00;96079.88;5102313;28;20036;-74
2021/10/19 03:24:52;;;;;;;33.00;16.05;;;;;;;5.41;100.00;96083.41;5101027;28;20047;-74
2021/10/19 03:27:19;;;;;;;31.52;16.58;;;;;;;5.43;100.00;96078.88;5101617;28;20054;-74
2021/10/19 03:29:45;;;;;;;28.17;15.73;;;;;;;5.42;100.00;96085.03;5103198;28;20501;-75
2021/10/19 03:32:12;;;;;;;30.27;15.57;;;;;;;5.41;100.00;96073.06;5107150;28;20047;-75
2021/10/19 03:34:39;;;;;;;29.75;16.88;;;;;;;5.46;100.00;96081.13;5102588;28;20542;-74
2021/10/19 03:37:06;;;;;;;30.42;16.52;;;;;;;5.47;100.00;96082.72;5103550;28;20059;-75
2021/10/19 03:39:33;;;;;;;40.00;18.77;;;;;;;5.49;100.00;96080.81;5105645;28;20467;-75
2021/10/19 03:42:00;;;;;;;43.90;19.60;;;;;;;5.47;100.00;96082.72;5101873;28;20044;-74
2021/10/19 03:44:26;;;;;;;31.83;16.73;;;;;;;5.48;100.00;96080.97;5101424;28;20039;-75
2021/10/19 03:46:53;;;;;;;36.58;17.42;;;;;;;5.48;100.00;96079.19;5101393;28;20048;-75
2021/10/19 03:49:20;;;;;;;44.05;21.55;;;;;;;5.53;100.00;96087.22;5105765;28;20047;-75
2021/10/19 03:51:47;;;;;;;32.75;17.05;;;;;;;5.40;100.00;96074.03;5100977;28;20047;-75
2021/10/19 03:54:13;;;;;;;31.38;14.95;;;;;;;5.41;100.00;96085.19;5102000;28;20475;-75
2021/10/19 03:56:40;;;;;;;27.08;14.30;;;;;;;5.34;100.00;96069.53;5101869;28;21489;-74
2021/10/19 03:59:07;;;;;;;26.98;15.68;;;;;;;5.33;100.00;96078.25;5101960;28;20531;-75
2021/10/19 04:01:34;;;;;;;27.75;14.82;;;;;;;5.28;100.00;96077.97;5105079;28;20044;-75
2021/10/19 04:04:01;;;;;;;23.45;14.77;;;;;;;5.29;100.00;96077.00;5101702;28;20472;-75
2021/10/19 04:06:28;;;;;;;28.42;17.20;;;;;;;5.29;100.00;96084.75;5100045;28;20059;-75
2021/10/19 04:08:55;;;;;;;28.33;20.33;;;;;;;5.19;100.00;96084.16;5102977;28;20039;-75
2021/10/19 04:11:22;;;;;;;26.35;21.85;;;;;;;5.23;100.00;96095.75;5100760;28;20631;-75
2021/10/19 04:13:49;;;;;;;26.25;20.50;;;;;;;5.22;100.00;96099.28;5099788;28;20044;-75
2021/10/19 04:16:16;;;;;;;30.20;18.73;;;;;;;5.23;100.00;96100.91;5102349;28;20039;-75
2021/10/19 04:18:42;;;;;;;29.88;16.35;;;;;;;5.24;100.00;96107.66;5103552;28;20139;-75
2021/10/19 04:21:09;;;;;;;23.05;15.30;;;;;;;5.28;100.00;96108.97;5089903;27;20040;-75
2021/10/19 04:23:36;;;;;;;22.17;14.52;;;;;;;4.94;100.00;96112.59;5105718;27;20040;-75
2021/10/19 04:26:03;;;;;;;24.80;15.43;;;;;;;4.52;100.00;96114.41;5105852;27;20578;-74
2021/10/19 04:28:30;;;;;;;30.10;16.73;;;;;;;4.09;100.00;96107.72;5111552;27;20048;-75
2021/10/19 04:30:57;;;;;;;28.33;16.65;;;;;;;4.28;100.00;96107.44;5111337;27;20513;-74
2021/10/19 04:33:23;;;;;;;25.85;13.80;;;;;;;4.51;100.00;96106.81;5107637;27;20515;-74
2021/10/19 04:35:51;;;;;;;23.05;13.95;;;;;;;4.61;100.00;96117.78;5105286;27;20040;-75
2021/10/19 04:38:17;;;;;;;26.90;13.68;;;;;;;4.59;100.00;96109.38;5107756;27;20096;-74
2021/10/19 04:40:44;;;;;;;19.90;12.00;;;;;;;4.62;100.00;96098.75;5107342;27;20040;-75
2021/10/19 04:43:11;;;;;;;26.75;18.70;;;;;;;4.61;100.00;96117.78;5106483;27;20421;-74
2021/10/19 04:45:38;;;;;;;27.67;19.15;;;;;;;4.56;100.00;96120.06;5108010;27;20047;-74
2021/10/19 04:48:05;;;;;;;29.65;17.95;;;;;;;4.50;100.00;96110.34;5104125;28;20038;-74
2021/10/19 04:50:34;;;;;;;29.13;16.55;;;;;;;4.58;100.00;96123.28;5106593;27;20140;-75
2021/10/19 04:53:01;;;;;;;24.08;17.98;;;;;;;4.56;100.00;96120.06;5089149;28;20417;-74
2021/10/19 04:55:28;;;;;;;27.45;19.83;;;;;;;4.59;100.00;96132.59;5104736;28;20104;-75
2021/10/19 04:57:55;;;;;;;25.95;18.88;;;;;;;4.55;100.00;96123.59;5107659;27;20047;-75
2021/10/19 05:00:22;;;;;;;27.63;21.88;;;;;;;4.60;100.00;96137.63;5105066;27;20044;-74
2021/10/19 05:02:51;;;;;;;24.75;19.92;;;;;;;4.59;100.00;96145.50;5088631;28;20066;-74
2021/10/19 05:05:19;;;;;;;25.83;20.35;;;;;;;4.56;100.00;96148.44;5105432;28;20039;-75
2021/10/19 05:07:47;;;;;;;27.83;20.48;;;;;;;4.56;100.00;96156.16;5104923;28;20469;-75
2021/10/19 05:10:15;;;;;;;49.33;23.02;;;;;;;4.52;100.00;96154.84;5102792;28;20040;-75
2021/10/19 05:12:42;;;;;;;66.57;28.92;;;;;;;4.46;100.00;96150.34;5105238;27;20108;-75
2021/10/19 05:15:10;;;;;;;77.68;29.33;;;;;;;4.51;100.00;96166.97;5101997;28;20032;-75
2021/10/19 05:17:37;;;;;;;72.10;27.67;;;;;;;4.47;100.00;96170.84;5104890;27;20561;-75
2021/10/19 05:20:04;;;;;;;54.90;23.67;;;;;;;4.48;100.00;96184.53;5102413;28;20502;-75
2021/10/19 05:22:33;;;;;;;44.60;20.27;;;;;;;4.44;100.00;96178.09;5103780;27;20462;-75
2021/10/19 05:24:59;;;;;;;42.92;17.90;;;;;;;4.38;100.00;96170.00;5099691;27;20516;-76
2021/10/19 05:27:26;;;;;;;31.02;16.65;;;;;;;4.43;100.00;96186.78;5100070;27;20035;-74
2021/10/19 05:29:53;;;;;;;31.38;20.70;;;;;;;4.40;100.00;96191.28;5106980;27;20039;-75
2021/10/19 05:32:20;;;;;;;23.02;18.75;;;;;;;4.35;100.00;96180.63;5103507;27;20036;-75
2021/10/19 05:34:46;;;;;;;21.13;16.55;;;;;;;4.40;100.00;96193.88;5104476;27;20043;-73
2021/10/19 05:37:13;;;;;;;23.63;16.90;;;;;;;4.42;100.00;96200.66;5089081;28;20052;-74
2021/10/19 05:39:41;;;;;;;23.83;16.45;;;;;;;4.44;100.00;96194.38;5104943;28;20104;-74
2021/10/19 05:42:08;;;;;;;21.95;13.32;;;;;;;4.46;100.00;96199.38;5103398;28;20046;-74
2021/10/19 05:44:35;;;;;;;20.58;12.77;;;;;;;4.47;100.00;96203.56;5105418;27;20039;-74
2021/10/19 05:47:02;;;;;;;29.73;16.55;;;;;;;4.52;100.00;96206.47;5104798;27;20043;-74
2021/10/19 05:49:28;;;;;;;22.27;13.23;;;;;;;4.43;100.00;96184.19;5102745;28;20059;-74
2021/10/19 05:51:55;;;;;;;31.00;14.63;;;;;;;4.63;100.00;96213.91;5106451;27;20423;-74
2021/10/19 05:54:23;;;;;;;27.10;16.10;;;;;;;4.70;100.00;96214.91;5104949;27;20047;-74
2021/10/19 05:56:51;;;;;;;32.47;16.63;;;;;;;4.72;100.00;96207.78;5104033;27;20096;-74
2021/10/19 05:59:19;;;;;;;26.88;15.13;;;;;;;4.82;100.00;96222.31;5105816;27;20039;-74
2021/10/19 06:01:46;;;;;;;27.38;17.23;;;;;;;4.79;100.00;96216.50;5106730;27;20504;-74
2021/10/19 06:04:13;;;;;;;24.05;14.05;;;;;;;4.98;100.00;96227.47;5102479;27;20044;-73
2021/10/19 06:06:40;;;;;;;30.67;17.17;;;;;;;4.95;100.00;96212.31;5100398;28;20741;-74
2021/10/19 06:09:07;;;;;;;25.13;14.98;;;;;;;5.02;100.00;96223.59;5100877;28;20051;-71
2021/10/19 06:11:34;;;;;;;30.75;14.00;;;;;;;5.14;100.00;96232.63;5099830;28;20059;-74
2021/10/19 06:14:01;;;;;;;32.22;16.55;;;;;;;5.23;100.00;96230.06;5103707;28;20054;-74
2021/10/19 06:16:28;;;;;;;26.40;14.65;;;;;;;5.26;100.00;96234.91;5104260;27;20805;-73
2021/10/19 06:18:54;;;;;;;30.55;16.40;;;;;;;5.35;100.00;96239.09;5104259;28;20047;-73
2021/10/19 06:21:21;;;;;;;41.58;18.77;;;;;;;5.39;100.00;96245.53;5104277;28;20043;-73
2021/10/19 06:23:48;;;;;;;28.58;13.57;;;;;;;5.42;100.00;96244.41;5104504;28;20036;-72
2021/10/19 06:26:15;;;;;;;24.85;12.32;;;;;;;5.40;100.00;96241.97;5105722;27;20043;-73
2021/10/19 06:28:42;;;;;;;23.75;13.15;;;;;;;5.42;100.00;96245.22;5107339;27;20107;-73
2021/10/19 06:31:08;;;;;;;24.20;12.85;;;;;;;5.55;100.00;96240.34;5106587;27;20501;-73
2021/10/19 06:33:36;;;;;;;26.85;13.88;;;;;;;5.61;100.00;96238.09;5104431;28;20044;-73
2021/10/19 06:36:04;;;;;;;28.77;15.32;;;;;;;5.71;100.00;96233.53;5108203;27;20039;-73
2021/10/19 06:38:31;;;;;;;25.40;13.63;;;;;;;5.79;100.00;96241.25;5104101;28;20440;-73
2021/10/19 06:40:58;;;;;;;23.83;13.02;;;;;;;5.89;100.00;96226.38;5103840;28;20043;-73
2021/10/19 06:43:25;;;;;;;23.20;13.25;;;;;;;6.00;100.00;96243.34;5106753;27;20043;-73
2021/10/19 06:45:53;;;;;;;28.58;15.10;;;;;;;6.12;100.00;96251.53;5103722;28;20044;-73
2021/10/19 06:48:19;;;;;;;30.70;15.55;;;;;;;6.30;100.00;96249.53;5085847;28;20052;-73
2021/10/19 06:50:46;;;;;;;25.08;15.55;;;;;;;6.32;100.00;96247.56;5102665;28;20035;-73
2021/10/19 06:53:13;;;;;;;33.25;15.40;;;;;;;6.48;100.00;96256.22;5104222;27;20863;-73
2021/10/19 06:55:40;;;;;;;32.38;17.48;;;;;;;6.60;100.00;96254.84;5104811;28;20100;-73
2021/10/19 06:58:09;;;;;;;34.90;16.17;;;;;;;6.64;100.00;96250.13;5101371;28;20047;-74
2021/10/19 07:00:56;;;;;;;28.73;14.88;;;;;;;6.91;100.00;96259.19;5103798;27;20043;-74
2021/10/19 07:03:24;;;;;;;24.20;14.43;;;;;;;6.90;100.00;96270.53;5103023;28;20927;-74
2021/10/19 07:05:52;;;;;;;25.35;14.70;;;;;;;6.99;100.00;96243.59;5103859;28;20082;-75
2021/10/19 07:08:19;;;;;;;27.75;14.88;;;;;;;7.20;100.00;96260.28;5105284;28;20043;-74
2021/10/19 07:10:46;;;;;;;28.85;15.88;;;;;;;7.45;100.00;96273.84;5103462;28;20070;-73
2021/10/19 07:13:13;;;;;;;29.90;14.77;;;;;;;7.53;100.00;96275.56;5105201;28;20050;-74
2021/10/19 07:15:40;;;;;;;26.45;14.98;;;;;;;7.51;100.00;96251.59;5098378;28;20051;-75
2021/10/19 07:18:08;;;;;;;23.23;13.10;;;;;;;7.78;100.00;96269.16;5102062;28;20165;-74
2021/10/19 07:20:36;;;;;;;25.35;12.70;;;;;;;7.89;100.00;96259.34;5100359;27;20064;-74
2021/10/19 07:23:03;;;;;;;24.25;13.82;;;;;;;8.00;99.96;96264.06;5101927;28;20047;-75
2021/10/19 07:25:30;;;;;;;26.38;15.30;;;;;;;8.12;99.91;96265.22;5102493;28;20397;-74
2021/10/19 07:27:57;;;;;;;26.52;15.35;;;;;;;8.18;98.73;96254.13;5104679;28;20046;-75
2021/10/19 07:30:24;;;;;;;22.38;13.45;;;;;;;8.40;98.08;96272.34;5106979;28;20420;-75
2021/10/19 07:32:53;;;;;;;24.45;14.80;;;;;;;8.49;96.64;96266.09;5102159;28;20031;-75
2021/10/19 07:35:21;;;;;;;21.83;14.00;;;;;;;8.55;95.97;96257.59;5102556;28;20039;-74
2021/10/19 07:37:48;;;;;;;25.65;17.63;;;;;;;8.71;95.57;96258.34;5085587;28;20097;-75
2021/10/19 07:40:16;;;;;;;28.33;24.50;;;;;;;8.80;93.85;96257.25;5105958;28;20112;-74
2021/10/19 07:42:42;;;;;;;25.58;21.58;;;;;;;8.99;94.39;96256.63;5095380;28;20047;-75
2021/10/19 07:45:11;;;;;;;22.30;12.70;;;;;;;9.18;93.42;96249.19;5102335;27;20047;-75
2021/10/19 07:47:43;;;;;;;18.77;11.75;;;;;;;9.26;91.75;96251.69;5102020;28;20043;-75
2021/10/19 07:50:12;;;;;;;19.00;13.88;;;;;;;9.38;88.99;96250.19;5100121;28;20064;-74
2021/10/19 07:52:39;;;;;;;23.33;15.50;;;;;;;9.40;88.63;96246.56;5102350;27;20044;-74
2021/10/19 07:55:07;;;;;;;21.05;16.13;;;;;;;9.54;86.71;96256.09;5105491;27;20058;-74
2021/10/19 07:57:49;;;;;;;20.67;11.60;;;;;;;9.59;87.05;96258.94;5100188;27;20644;-75
2021/10/19 08:00:21;;;;;;;21.52;11.23;;;;;;;9.66;87.17;96254.56;5098787;27;20524;-74
2021/10/19 08:02:47;;;;;;;16.55;9.57;;;;;;;9.57;87.19;96243.50;5099802;27;20112;-74
2021/10/19 08:05:15;;;;;;;17.73;10.13;;;;;;;9.63;86.19;96252.34;5102144;27;20056;-74
2021/10/19 08:07:43;;;;;;;16.95;9.95;;;;;;;9.71;85.29;96252.22;5105729;27;20089;-74
2021/10/19 08:10:14;;;;;;;19.38;9.07;;;;;;;9.83;84.68;96247.28;5109478;27;20048;-73
2021/10/19 08:12:41;;;;;;;17.45;9.20;;;;;;;9.90;84.06;96242.09;5106287;27;20043;-73
2021/10/19 08:15:09;;;;;;;17.92;9.30;;;;;;;10.01;83.50;96244.19;5102681;27;20051;-74
2021/10/19 08:17:36;;;;;;;15.55;8.98;;;;;;;10.16;83.39;96245.88;5104265;27;20054;-75
2021/10/19 08:20:05;;;;;;;21.25;10.07;;;;;;;10.21;83.29;96243.47;5107640;27;20043;-75
2021/10/19 08:22:33;;;;;;;18.65;9.65;;;;;;;10.31;81.84;96243.94;5105834;28;20436;-74
2021/10/19 08:25:03;;;;;;;18.95;10.02;;;;;;;10.44;83.11;96244.00;5105349;27;20412;-74
2021/10/19 08:27:29;;;;;;;17.20;10.68;;;;;;;10.60;83.54;96247.25;5105802;27;20478;-74
2021/10/19 08:29:56;;;;;;;18.83;11.48;;;;;;;10.70;81.87;96243.28;5104879;27;20039;-74
2021/10/19 08:32:23;;;;;;;17.83;10.10;;;;;;;10.93;82.24;96249.13;5091406;27;20049;-75
2021/10/19 08:34:50;;;;;;;16.88;10.32;;;;;;;11.07;81.11;96253.34;5090178;28;20050;-74
2021/10/19 08:37:17;;;;;;;17.80;10.43;;;;;;;11.15;80.26;96223.72;5110805;27;20039;-72
2021/10/19 08:39:43;;;;;;;16.52;9.48;;;;;;;11.36;79.59;96252.19;5090517;27;20100;-72
2021/10/19 08:42:13;;;;;;;18.42;10.60;;;;;;;11.34;79.94;96237.75;5104666;27;20046;-71
2021/10/19 08:44:41;;;;;;;19.33;9.75;;;;;;;11.46;79.87;96246.56;5103791;27;20043;-71
2021/10/19 08:47:08;;;;;;;18.38;10.32;;;;;;;11.44;79.03;96238.16;5106755;27;20047;-72
2021/10/19 08:49:35;;;;;;;15.30;8.43;;;;;;;11.62;79.25;96240.94;5104133;28;20075;-72
2021/10/19 08:52:04;;;;;;;21.20;10.38;;;;;;;11.93;79.41;96236.91;5103773;28;20417;-72
2021/10/19 08:54:30;;;;;;;16.77;8.90;;;;;;;12.19;77.97;96237.81;5105497;28;20067;-73
2021/10/19 08:56:57;;;;;;;14.95;8.30;;;;;;;12.28;73.90;96223.53;5104099;28;20047;-73
2021/10/19 08:59:25;;;;;;;15.73;8.75;;;;;;;12.37;71.13;96237.97;5107249;27;20059;-72
2021/10/19 09:01:57;;;;;;;15.10;8.30;;;;;;;12.50;71.76;96236.31;5107090;27;20047;-73
2021/10/19 09:04:28;;;;;;;14.40;7.47;;;;;;;12.46;71.05;96238.53;5104353;27;20081;-72
2021/10/19 09:06:56;;;;;;;13.63;8.05;;;;;;;12.59;71.28;96228.00;5084836;27;20397;-73
2021/10/19 09:09:24;;;;;;;13.23;7.18;;;;;;;12.89;69.18;96226.63;5103098;27;20039;-71
2021/10/19 09:11:58;;;;;;;12.52;7.20;;;;;;;12.96;65.94;96222.16;5106456;27;20036;-72
2021/10/19 09:14:40;;;;;;;14.35;7.28;;;;;;;13.27;66.16;96220.53;5101822;27;20047;-73
2021/10/19 09:17:08;;;;;;;6.07;4.15;;;;;;;13.34;60.38;96218.69;5100157;28;20063;-73
2021/10/19 09:19:35;;;;;;;8.80;5.28;;;;;;;13.42;61.28;96217.66;5108439;27;20659;-72
2021/10/19 09:22:08;;;;;;;11.10;5.53;;;;;;;13.63;59.48;96219.06;5103928;27;20036;-73
2021/10/19 09:24:52;;;;;;;8.13;5.05;;;;;;;13.70;56.87;96188.38;5102958;28;20049;-72
2021/10/19 09:27:19;;;;;;;6.85;4.38;;;;;;;13.80;57.33;96193.91;5108145;27;20096;-73
2021/10/19 09:29:50;;;;;;;5.72;3.92;;;;;;;14.10;53.01;96211.53;5104618;27;20044;-73
2021/10/19 09:32:18;;;;;;;8.23;4.40;;;;;;;14.24;54.47;96202.50;5101510;28;20040;-72
2021/10/19 09:34:46;;;;;;;7.63;4.60;;;;;;;14.23;52.13;96200.91;5086665;28;20093;-73
2021/10/19 09:37:21;;;;;;;9.85;5.05;;;;;;;14.36;54.24;96201.75;5109968;27;20040;-73
2021/10/19 09:39:50;;;;;;;7.88;5.03;;;;;;;14.68;51.59;96199.75;5104748;27;20548;-73
2021/10/19 09:42:18;;;;;;;8.52;5.47;;;;;;;15.05;54.03;96195.19;5104308;28;20047;-73
2021/10/19 09:44:59;;;;;;;8.10;3.90;;;;;;;15.63;51.52;96193.63;5104917;28;20444;-72
2021/10/19 09:47:28;;;;;;;8.25;4.45;;;;;;;15.89;48.12;96198.66;5103712;28;20504;-73
2021/10/19 09:49:56;;;;;;;6.22;4.40;;;;;;;15.92;48.75;96169.28;5104014;27;20320;-71
2021/10/19 09:52:23;;;;;;;8.50;4.70;;;;;;;16.33;48.35;96199.00;5106346;27;20062;-72
2021/10/19 09:54:52;;;;;;;11.23;4.55;;;;;;;16.48;47.63;96188.78;5103625;27;20061;-72
2021/10/19 09:57:19;;;;;;;8.10;4.88;;;;;;;16.86;47.94;96182.13;5105064;27;20043;-72
2021/10/19 09:59:47;;;;;;;5.72;4.15;;;;;;;17.26;46.15;96186.44;5103311;27;20044;-72
2021/10/19 10:02:15;;;;;;;9.98;4.45;;;;;;;17.42;44.31;96189.31;5104673;28;20048;-72
2021/10/19 10:04:42;;;;;;;7.20;4.15;;;;;;;17.55;45.80;96181.06;5104090;28;20064;-72
2021/10/19 10:07:14;;;;;;;9.85;5.80;;;;;;;17.54;43.98;96187.41;5107046;27;20036;-72
2021/10/19 10:09:42;;;;;;;8.68;4.70;;;;;;;17.83;42.90;96179.38;5101285;28;20044;-72
2021/10/19 10:12:09;;;;;;;9.02;5.00;;;;;;;17.93;42.15;96159.25;5107308;27;20043;-73
2021/10/19 10:14:49;;;;;;;6.78;4.32;;;;;;;18.38;44.40;96165.25;5103644;27;20048;-73
2021/10/19 10:17:15;;;;;;;5.97;3.80;;;;;;;18.72;42.33;96168.50;5100717;28;20528;-74
2021/10/19 10:19:45;;;;;;;6.88;4.35;;;;;;;19.05;41.05;96158.00;5113064;27;20047;-73
2021/10/19 10:22:25;;;;;;;7.40;4.32;;;;;;;19.23;40.02;96162.91;5102922;27;20923;-74
2021/10/19 10:25:09;;;;;;;6.95;3.78;;;;;;;19.32;39.94;96151.88;5101725;27;20463;-73
2021/10/19 10:27:38;;;;;;;8.07;4.45;;;;;;;19.46;39.45;96160.94;5101751;27;20039;-73
2021/10/19 10:30:16;;;;;;;5.70;4.25;;;;;;;19.41;37.86;96156.44;5102416;27;20106;-74
2021/10/19 10:32:43;;;;;;;7.10;4.80;;;;;;;19.41;38.42;96151.16;5101611;27;20048;-74
2021/10/19 10:35:16;;;;;;;5.30;3.60;;;;;;;19.89;38.26;96159.09;5101724;27;20105;-74
2021/10/19 10:37:48;;;;;;;6.82;4.40;;;;;;;20.36;39.10;96150.28;5101750;28;20040;-75
2021/10/19 10:40:38;;;;;;;7.47;5.05;;;;;;;20.83;37.45;96137.16;5105182;28;20043;-74
2021/10/19 10:43:27;;;;;;;9.60;5.40;;;;;;;20.50;35.62;96140.00;5104808;28;20044;-75
2021/10/19 10:46:19;;;;;;;7.05;4.72;;;;;;;20.57;36.23;96135.25;5104092;27;20516;-75
2021/10/19 10:48:47;;;;;;;6.10;4.40;;;;;;;20.97;36.03;96132.91;5107094;27;20040;-75
2021/10/19 10:51:26;;;;;;;7.38;3.75;;;;;;;20.91;35.86;96134.78;5103690;27;20125;-74
2021/10/19 10:53:53;;;;;;;6.72;3.75;;;;;;;21.12;34.17;96119.69;5102190;28;20036;-74
2021/10/19 10:56:19;;;;;;;5.32;3.75;;;;;;;21.44;33.87;96123.84;5103168;28;20035;-75
2021/10/19 10:58:49;;;;;;;5.78;3.92;;;;;;;21.36;32.97;96130.50;5088005;28;20101;-75
2021/10/19 11:01:27;;;;;;;5.07;3.45;;;;;;;20.92;34.49;96122.31;5100770;28;20046;-75
2021/10/19 11:04:08;;;;;;;7.32;4.65;;;;;;;21.34;33.74;96131.84;5099559;28;20078;-74
2021/10/19 11:06:38;;;;;;;6.53;3.95;;;;;;;21.62;34.40;96132.34;5102445;28;20093;-74
2021/10/19 11:09:13;;;;;;;6.50;4.20;;;;;;;21.58;33.52;96116.97;5105576;28;20042;-74
2021/10/19 11:11:42;;;;;;;5.75;3.53;;;;;;;21.37;33.15;96126.00;5102764;28;20051;-74
2021/10/19 11:14:10;;;;;;;6.13;3.35;;;;;;;21.33;34.37;96124.94;5101894;28;20043;-74
2021/10/19 11:16:45;;;;;;;5.28;3.72;;;;;;;21.70;32.79;96123.84;5086708;28;20074;-74
2021/10/19 11:19:31;;;;;;;6.78;4.28;;;;;;;21.81;33.03;96114.78;5102150;28;20044;-74
2021/10/19 11:22:04;;;;;;;6.90;3.92;;;;;;;22.01;32.51;96113.13;5102455;28;20699;-73
2021/10/19 11:24:33;;;;;;;6.72;3.80;;;;;;;21.75;31.41;96108.72;5114823;27;20715;-74
2021/10/19 11:27:04;;;;;;;7.63;3.65;;;;;;;22.08;32.48;96103.78;5098051;28;20028;-73